sensor_id;sensor_type;location;lat;lon;timestamp;P1;durP1;ratioP1;P2;durP2;ratioP2
27495;SDS011;14929;51.336;9.416;2022-10-16T00:00:05;0.70;;;0.70;;
27495;SDS011;14929;51.336;9.416;2022-10-16T00:02:34;0.73;;;0.73;;
27495;SDS011;14929;51.336;9.416;2022-10-16T00:05:03;0.77;;;0.77;;
27495;SDS011;14929;51.336;9.416;2022-10-16T00:07:31;0.90;;;0.90;;
27495;SDS011;14929;51.336;9.416;2022-10-16T00:09:59;1.25;;;1.02;;
27495;SDS011;14929;51.336;9.416;2022-10-16T00:12:26;1.30;;;1.20;;
27495;SDS011;14929;51.336;9.416;2022-10-16T00:14:54;0.60;;;0.60;;
27495;SDS011;14929;51.336;9.416;2022-10-16T00:17:21;1.10;;;1.05;;
27495;SDS011;14929;51.336;9.416;2022-10-16T00:19:49;2.72;;;1.00;;
27495;SDS011;14929;51.336;9.416;2022-10-16T00:22:18;0.70;;;0.70;;
27495;SDS011;14929;51.336;9.416;2022-10-16T00:24:45;0.77;;;0.77;;
27495;SDS011;14929;51.336;9.416;2022-10-16T00:27:13;0.65;;;0.65;;
27495;SDS011;14929;51.336;9.416;2022-10-16T00:29:41;0.77;;;0.77;;
27495;SDS011;14929;51.336;9.416;2022-10-16T00:32:09;0.80;;;0.80;;
27495;SDS011;14929;51.336;9.416;2022-10-16T00:34:36;0.90;;;0.90;;
27495;SDS011;14929;51.336;9.416;2022-10-16T00:37:04;0.77;;;0.77;;
27495;SDS011;14929;51.336;9.416;2022-10-16T00:39:33;1.00;;;1.00;;
27495;SDS011;14929;51.336;9.416;2022-10-16T00:42:00;0.93;;;0.93;;
27495;SDS011;14929;51.336;9.416;2022-10-16T00:44:42;1.30;;;1.20;;
27495;SDS011;14929;51.336;9.416;2022-10-16T00:47:15;0.70;;;0.70;;
27495;SDS011;14929;51.336;9.416;2022-10-16T00:49:47;1.23;;;0.85;;
27495;SDS011;14929;51.336;9.416;2022-10-16T00:52:18;0.80;;;0.80;;
27495;SDS011;14929;51.336;9.416;2022-10-16T00:54:47;1.05;;;0.80;;
27495;SDS011;14929;51.336;9.416;2022-10-16T00:57:16;0.95;;;0.95;;
27495;SDS011;14929;51.336;9.416;2022-10-16T00:59:44;0.75;;;0.75;;
27495;SDS011;14929;51.336;9.416;2022-10-16T01:02:13;0.82;;;0.82;;
27495;SDS011;14929;51.336;9.416;2022-10-16T01:04:43;0.75;;;0.75;;
27495;SDS011;14929;51.336;9.416;2022-10-16T01:07:14;0.90;;;0.90;;
27495;SDS011;14929;51.336;9.416;2022-10-16T01:09:54;1.42;;;1.42;;
27495;SDS011;14929;51.336;9.416;2022-10-16T01:12:32;0.70;;;0.70;;
27495;SDS011;14929;51.336;9.416;2022-10-16T01:15:08;0.47;;;0.47;;
27495;SDS011;14929;51.336;9.416;2022-10-16T01:17:41;0.60;;;0.60;;
27495;SDS011;14929;51.336;9.416;2022-10-16T01:20:14;0.70;;;0.70;;
27495;SDS011;14929;51.336;9.416;2022-10-16T01:22:54;0.73;;;0.73;;
27495;SDS011;14929;51.336;9.416;2022-10-16T01:25:34;0.82;;;0.82;;
27495;SDS011;14929;51.336;9.416;2022-10-16T01:28:15;0.57;;;0.57;;
27495;SDS011;14929;51.336;9.416;2022-10-16T01:30:44;0.90;;;0.90;;
27495;SDS011;14929;51.336;9.416;2022-10-16T01:33:13;0.80;;;0.80;;
27495;SDS011;14929;51.336;9.416;2022-10-16T01:35:46;0.60;;;0.60;;
27495;SDS011;14929;51.336;9.416;2022-10-16T01:38:17;0.88;;;0.88;;
27495;SDS011;14929;51.336;9.416;2022-10-16T01:40:50;2.33;;;1.20;;
27495;SDS011;14929;51.336;9.416;2022-10-16T01:43:24;1.10;;;1.00;;
27495;SDS011;14929;51.336;9.416;2022-10-16T01:45:54;0.60;;;0.60;;
27495;SDS011;14929;51.336;9.416;2022-10-16T01:48:22;0.80;;;0.80;;
27495;SDS011;14929;51.336;9.416;2022-10-16T01:50:52;0.70;;;0.70;;
27495;SDS011;14929;51.336;9.416;2022-10-16T01:53:23;0.80;;;0.80;;
27495;SDS011;14929;51.336;9.416;2022-10-16T01:55:50;0.60;;;0.60;;
27495;SDS011;14929;51.336;9.416;2022-10-16T01:58:20;0.80;;;0.80;;
27495;SDS011;14929;51.336;9.416;2022-10-16T02:00:50;1.00;;;0.80;;
27495;SDS011;14929;51.336;9.416;2022-10-16T02:03:18;1.00;;;1.00;;
27495;SDS011;14929;51.336;9.416;2022-10-16T02:05:47;0.90;;;0.90;;
27495;SDS011;14929;51.336;9.416;2022-10-16T02:08:17;0.90;;;0.80;;
27495;SDS011;14929;51.336;9.416;2022-10-16T02:10:45;1.02;;;0.80;;
27495;SDS011;14929;51.336;9.416;2022-10-16T02:13:13;0.55;;;0.55;;
27495;SDS011;14929;51.336;9.416;2022-10-16T02:15:54;0.80;;;0.80;;
27495;SDS011;14929;51.336;9.416;2022-10-16T02:18:22;0.75;;;0.75;;
27495;SDS011;14929;51.336;9.416;2022-10-16T02:20:55;0.80;;;0.80;;
27495;SDS011;14929;51.336;9.416;2022-10-16T02:23:27;0.75;;;0.75;;
27495;SDS011;14929;51.336;9.416;2022-10-16T02:26:02;0.70;;;0.70;;
27495;SDS011;14929;51.336;9.416;2022-10-16T02:28:34;0.60;;;0.60;;
27495;SDS011;14929;51.336;9.416;2022-10-16T02:31:08;0.60;;;0.60;;
27495;SDS011;14929;51.336;9.416;2022-10-16T02:33:37;0.73;;;0.73;;
27495;SDS011;14929;51.336;9.416;2022-10-16T02:36:06;0.60;;;0.60;;
27495;SDS011;14929;51.336;9.416;2022-10-16T02:38:34;0.70;;;0.70;;
27495;SDS011;14929;51.336;9.416;2022-10-16T02:41:03;1.33;;;0.75;;
27495;SDS011;14929;51.336;9.416;2022-10-16T02:43:31;4.70;;;1.00;;
27495;SDS011;14929;51.336;9.416;2022-10-16T02:45:59;0.70;;;0.65;;
27495;SDS011;14929;51.336;9.416;2022-10-16T02:48:28;0.68;;;0.68;;
27495;SDS011;14929;51.336;9.416;2022-10-16T02:50:56;0.70;;;0.70;;
27495;SDS011;14929;51.336;9.416;2022-10-16T02:53:23;1.00;;;0.60;;
27495;SDS011;14929;51.336;9.416;2022-10-16T02:55:51;0.73;;;0.73;;
27495;SDS011;14929;51.336;9.416;2022-10-16T02:58:18;2.00;;;0.95;;
27495;SDS011;14929;51.336;9.416;2022-10-16T03:00:46;0.80;;;0.80;;
27495;SDS011;14929;51.336;9.416;2022-10-16T03:03:14;0.70;;;0.70;;
27495;SDS011;14929;51.336;9.416;2022-10-16T03:05:43;0.95;;;0.75;;
27495;SDS011;14929;51.336;9.416;2022-10-16T03:08:11;0.88;;;0.88;;
27495;SDS011;14929;51.336;9.416;2022-10-16T03:10:39;0.70;;;0.70;;
27495;SDS011;14929;51.336;9.416;2022-10-16T03:13:06;0.77;;;0.77;;
27495;SDS011;14929;51.336;9.416;2022-10-16T03:15:34;1.58;;;0.90;;
27495;SDS011;14929;51.336;9.416;2022-10-16T03:18:01;0.70;;;0.70;;
27495;SDS011;14929;51.336;9.416;2022-10-16T03:20:29;1.45;;;0.70;;
27495;SDS011;14929;51.336;9.416;2022-10-16T03:22:58;0.70;;;0.70;;
27495;SDS011;14929;51.336;9.416;2022-10-16T03:25:25;0.70;;;0.70;;
27495;SDS011;14929;51.336;9.416;2022-10-16T03:27:53;0.77;;;0.77;;
27495;SDS011;14929;51.336;9.416;2022-10-16T03:30:20;0.70;;;0.70;;
27495;SDS011;14929;51.336;9.416;2022-10-16T03:32:48;0.90;;;0.90;;
27495;SDS011;14929;51.336;9.416;2022-10-16T03:35:18;0.90;;;0.90;;
27495;SDS011;14929;51.336;9.416;2022-10-16T03:37:46;0.80;;;0.80;;
27495;SDS011;14929;51.336;9.416;2022-10-16T03:40:15;0.80;;;0.80;;
27495;SDS011;14929;51.336;9.416;2022-10-16T03:42:43;0.95;;;0.95;;
27495;SDS011;14929;51.336;9.416;2022-10-16T03:45:11;0.88;;;0.88;;
27495;SDS011;14929;51.336;9.416;2022-10-16T03:47:38;0.75;;;0.75;;
27495;SDS011;14929;51.336;9.416;2022-10-16T03:50:06;1.58;;;0.80;;
27495;SDS011;14929;51.336;9.416;2022-10-16T03:52:34;1.60;;;0.93;;
27495;SDS011;14929;51.336;9.416;2022-10-16T03:55:02;0.93;;;0.88;;
27495;SDS011;14929;51.336;9.416;2022-10-16T03:57:32;0.70;;;0.70;;
27495;SDS011;14929;51.336;9.416;2022-10-16T03:59:59;0.90;;;0.90;;
27495;SDS011;14929;51.336;9.416;2022-10-16T04:02:27;0.68;;;0.68;;
27495;SDS011;14929;51.336;9.416;2022-10-16T04:04:54;0.88;;;0.88;;
27495;SDS011;14929;51.336;9.416;2022-10-16T04:07:22;0.80;;;0.80;;
27495;SDS011;14929;51.336;9.416;2022-10-16T04:09:49;0.88;;;0.73;;
27495;SDS011;14929;51.336;9.416;2022-10-16T04:12:17;0.50;;;0.50;;
27495;SDS011;14929;51.336;9.416;2022-10-16T04:14:46;1.00;;;1.00;;
27495;SDS011;14929;51.336;9.416;2022-10-16T04:17:13;0.70;;;0.70;;
27495;SDS011;14929;51.336;9.416;2022-10-16T04:19:40;0.60;;;0.60;;
27495;SDS011;14929;51.336;9.416;2022-10-16T04:22:08;0.68;;;0.68;;
27495;SDS011;14929;51.336;9.416;2022-10-16T04:24:35;1.50;;;0.95;;
27495;SDS011;14929;51.336;9.416;2022-10-16T04:27:03;0.73;;;0.73;;
27495;SDS011;14929;51.336;9.416;2022-10-16T04:29:31;0.90;;;0.90;;
27495;SDS011;14929;51.336;9.416;2022-10-16T04:31:59;1.33;;;1.10;;
27495;SDS011;14929;51.336;9.416;2022-10-16T04:34:27;2.58;;;1.05;;
27495;SDS011;14929;51.336;9.416;2022-10-16T04:36:54;1.10;;;1.02;;
27495;SDS011;14929;51.336;9.416;2022-10-16T04:39:22;0.98;;;0.98;;
27495;SDS011;14929;51.336;9.416;2022-10-16T04:41:49;1.25;;;0.80;;
27495;SDS011;14929;51.336;9.416;2022-10-16T04:44:17;0.80;;;0.80;;
27495;SDS011;14929;51.336;9.416;2022-10-16T04:46:44;0.93;;;0.93;;
27495;SDS011;14929;51.336;9.416;2022-10-16T04:49:13;1.00;;;1.00;;
27495;SDS011;14929;51.336;9.416;2022-10-16T04:51:41;1.10;;;1.10;;
27495;SDS011;14929;51.336;9.416;2022-10-16T04:54:09;0.90;;;0.90;;
27495;SDS011;14929;51.336;9.416;2022-10-16T04:56:36;2.08;;;1.95;;
27495;SDS011;14929;51.336;9.416;2022-10-16T04:59:11;1.30;;;1.20;;
27495;SDS011;14929;51.336;9.416;2022-10-16T05:01:39;1.70;;;1.30;;
27495;SDS011;14929;51.336;9.416;2022-10-16T05:04:07;1.70;;;1.60;;
27495;SDS011;14929;51.336;9.416;2022-10-16T05:06:36;1.77;;;1.67;;
27495;SDS011;14929;51.336;9.416;2022-10-16T05:09:04;1.67;;;1.58;;
27495;SDS011;14929;51.336;9.416;2022-10-16T05:11:32;1.15;;;1.15;;
27495;SDS011;14929;51.336;9.416;2022-10-16T05:13:59;1.58;;;1.48;;
27495;SDS011;14929;51.336;9.416;2022-10-16T05:16:27;3.53;;;1.20;;
27495;SDS011;14929;51.336;9.416;2022-10-16T05:18:55;1.83;;;1.38;;
27495;SDS011;14929;51.336;9.416;2022-10-16T05:21:23;1.13;;;1.10;;
27495;SDS011;14929;51.336;9.416;2022-10-16T05:23:52;1.05;;;1.05;;
27495;SDS011;14929;51.336;9.416;2022-10-16T05:26:20;0.93;;;0.93;;
27495;SDS011;14929;51.336;9.416;2022-10-16T05:28:48;0.82;;;0.82;;
27495;SDS011;14929;51.336;9.416;2022-10-16T05:31:16;1.20;;;1.10;;
27495;SDS011;14929;51.336;9.416;2022-10-16T05:33:44;1.52;;;0.82;;
27495;SDS011;14929;51.336;9.416;2022-10-16T05:36:11;1.75;;;1.00;;
27495;SDS011;14929;51.336;9.416;2022-10-16T05:38:39;0.98;;;0.98;;
27495;SDS011;14929;51.336;9.416;2022-10-16T05:41:10;0.95;;;0.95;;
27495;SDS011;14929;51.336;9.416;2022-10-16T05:43:37;1.05;;;1.05;;
27495;SDS011;14929;51.336;9.416;2022-10-16T05:46:05;1.05;;;1.05;;
27495;SDS011;14929;51.336;9.416;2022-10-16T05:48:33;1.70;;;1.60;;
27495;SDS011;14929;51.336;9.416;2022-10-16T05:51:01;0.90;;;0.90;;
27495;SDS011;14929;51.336;9.416;2022-10-16T05:53:30;1.23;;;1.13;;
27495;SDS011;14929;51.336;9.416;2022-10-16T05:55:59;1.02;;;0.95;;
27495;SDS011;14929;51.336;9.416;2022-10-16T05:58:30;0.63;;;0.63;;
27495;SDS011;14929;51.336;9.416;2022-10-16T06:01:01;0.93;;;0.90;;
27495;SDS011;14929;51.336;9.416;2022-10-16T06:03:32;1.52;;;1.13;;
27495;SDS011;14929;51.336;9.416;2022-10-16T06:05:59;1.05;;;1.05;;
27495;SDS011;14929;51.336;9.416;2022-10-16T06:08:35;1.20;;;1.20;;
27495;SDS011;14929;51.336;9.416;2022-10-16T06:11:03;1.55;;;1.40;;
27495;SDS011;14929;51.336;9.416;2022-10-16T06:13:34;1.30;;;1.20;;
27495;SDS011;14929;51.336;9.416;2022-10-16T06:16:02;1.98;;;1.10;;
27495;SDS011;14929;51.336;9.416;2022-10-16T06:18:31;1.23;;;1.23;;
27495;SDS011;14929;51.336;9.416;2022-10-16T06:20:59;0.98;;;0.98;;
27495;SDS011;14929;51.336;9.416;2022-10-16T06:23:32;0.90;;;0.90;;
27495;SDS011;14929;51.336;9.416;2022-10-16T06:26:04;1.10;;;1.10;;
27495;SDS011;14929;51.336;9.416;2022-10-16T06:28:34;1.00;;;0.80;;
27495;SDS011;14929;51.336;9.416;2022-10-16T06:31:03;0.80;;;0.80;;
27495;SDS011;14929;51.336;9.416;2022-10-16T06:33:31;0.57;;;0.57;;
27495;SDS011;14929;51.336;9.416;2022-10-16T06:36:02;0.82;;;0.82;;
27495;SDS011;14929;51.336;9.416;2022-10-16T06:38:32;0.90;;;0.90;;
27495;SDS011;14929;51.336;9.416;2022-10-16T06:40:59;0.90;;;0.90;;
27495;SDS011;14929;51.336;9.416;2022-10-16T06:43:28;0.70;;;0.70;;
27495;SDS011;14929;51.336;9.416;2022-10-16T06:45:59;0.70;;;0.70;;
27495;SDS011;14929;51.336;9.416;2022-10-16T06:48:27;0.68;;;0.68;;
27495;SDS011;14929;51.336;9.416;2022-10-16T06:50:57;1.02;;;1.00;;
27495;SDS011;14929;51.336;9.416;2022-10-16T06:53:26;0.80;;;0.80;;
27495;SDS011;14929;51.336;9.416;2022-10-16T06:55:55;1.08;;;0.90;;
27495;SDS011;14929;51.336;9.416;2022-10-16T06:58:23;0.70;;;0.70;;
27495;SDS011;14929;51.336;9.416;2022-10-16T07:00:54;0.50;;;0.50;;
27495;SDS011;14929;51.336;9.416;2022-10-16T07:03:24;0.68;;;0.68;;
27495;SDS011;14929;51.336;9.416;2022-10-16T07:05:51;0.70;;;0.70;;
27495;SDS011;14929;51.336;9.416;2022-10-16T07:08:19;0.52;;;0.52;;
27495;SDS011;14929;51.336;9.416;2022-10-16T07:10:46;1.95;;;0.60;;
27495;SDS011;14929;51.336;9.416;2022-10-16T07:13:14;0.85;;;0.70;;
27495;SDS011;14929;51.336;9.416;2022-10-16T07:15:41;0.45;;;0.45;;
27495;SDS011;14929;51.336;9.416;2022-10-16T07:18:09;0.85;;;0.85;;
27495;SDS011;14929;51.336;9.416;2022-10-16T07:20:37;0.80;;;0.80;;
27495;SDS011;14929;51.336;9.416;2022-10-16T07:23:05;0.80;;;0.80;;
27495;SDS011;14929;51.336;9.416;2022-10-16T07:25:33;0.70;;;0.70;;
27495;SDS011;14929;51.336;9.416;2022-10-16T07:28:00;0.90;;;0.90;;
27495;SDS011;14929;51.336;9.416;2022-10-16T07:30:28;0.65;;;0.65;;
27495;SDS011;14929;51.336;9.416;2022-10-16T07:32:55;1.08;;;1.08;;
27495;SDS011;14929;51.336;9.416;2022-10-16T07:35:22;0.65;;;0.65;;
27495;SDS011;14929;51.336;9.416;2022-10-16T07:37:51;0.70;;;0.70;;
27495;SDS011;14929;51.336;9.416;2022-10-16T07:40:19;0.47;;;0.47;;
27495;SDS011;14929;51.336;9.416;2022-10-16T07:42:47;0.30;;;0.30;;
27495;SDS011;14929;51.336;9.416;2022-10-16T07:45:14;0.60;;;0.60;;
27495;SDS011;14929;51.336;9.416;2022-10-16T07:47:41;0.75;;;0.75;;
27495;SDS011;14929;51.336;9.416;2022-10-16T07:50:09;0.70;;;0.70;;
27495;SDS011;14929;51.336;9.416;2022-10-16T07:52:36;0.75;;;0.60;;
27495;SDS011;14929;51.336;9.416;2022-10-16T07:55:06;2.78;;;0.65;;
27495;SDS011;14929;51.336;9.416;2022-10-16T07:57:34;0.93;;;0.50;;
27495;SDS011;14929;51.336;9.416;2022-10-16T08:00:02;0.40;;;0.40;;
27495;SDS011;14929;51.336;9.416;2022-10-16T08:02:31;0.60;;;0.60;;
27495;SDS011;14929;51.336;9.416;2022-10-16T08:04:58;0.50;;;0.50;;
27495;SDS011;14929;51.336;9.416;2022-10-16T08:07:26;0.65;;;0.65;;
27495;SDS011;14929;51.336;9.416;2022-10-16T08:09:53;0.60;;;0.60;;
27495;SDS011;14929;51.336;9.416;2022-10-16T08:12:24;0.50;;;0.50;;
27495;SDS011;14929;51.336;9.416;2022-10-16T08:14:52;0.63;;;0.63;;
27495;SDS011;14929;51.336;9.416;2022-10-16T08:17:19;0.50;;;0.50;;
27495;SDS011;14929;51.336;9.416;2022-10-16T08:19:47;0.55;;;0.55;;
27495;SDS011;14929;51.336;9.416;2022-10-16T08:22:14;0.47;;;0.47;;
27495;SDS011;14929;51.336;9.416;2022-10-16T08:24:42;2.53;;;1.13;;
27495;SDS011;14929;51.336;9.416;2022-10-16T08:27:09;0.73;;;0.70;;
27495;SDS011;14929;51.336;9.416;2022-10-16T08:29:38;0.88;;;0.88;;
27495;SDS011;14929;51.336;9.416;2022-10-16T08:32:05;0.70;;;0.70;;
27495;SDS011;14929;51.336;9.416;2022-10-16T08:34:33;0.82;;;0.82;;
27495;SDS011;14929;51.336;9.416;2022-10-16T08:37:00;0.80;;;0.80;;
27495;SDS011;14929;51.336;9.416;2022-10-16T08:39:28;0.70;;;0.70;;
27495;SDS011;14929;51.336;9.416;2022-10-16T08:42:07;0.80;;;0.80;;
27495;SDS011;14929;51.336;9.416;2022-10-16T08:47:42;0.60;;;0.60;;
27495;SDS011;14929;51.336;9.416;2022-10-16T08:50:17;0.70;;;0.70;;
27495;SDS011;14929;51.336;9.416;2022-10-16T08:52:49;1.75;;;0.80;;
27495;SDS011;14929;51.336;9.416;2022-10-16T08:55:21;1.00;;;1.00;;
27495;SDS011;14929;51.336;9.416;2022-10-16T08:57:58;1.48;;;1.08;;
27495;SDS011;14929;51.336;9.416;2022-10-16T09:00:27;0.57;;;0.57;;
27495;SDS011;14929;51.336;9.416;2022-10-16T09:02:59;0.70;;;0.70;;
27495;SDS011;14929;51.336;9.416;2022-10-16T09:05:38;0.70;;;0.70;;
27495;SDS011;14929;51.336;9.416;2022-10-16T09:08:25;0.70;;;0.70;;
27495;SDS011;14929;51.336;9.416;2022-10-16T09:10:58;2.13;;;0.90;;
27495;SDS011;14929;51.336;9.416;2022-10-16T09:13:32;2.83;;;1.23;;
27495;SDS011;14929;51.336;9.416;2022-10-16T09:16:12;0.70;;;0.70;;
27495;SDS011;14929;51.336;9.416;2022-10-16T09:18:48;0.90;;;0.68;;
27495;SDS011;14929;51.336;9.416;2022-10-16T09:21:21;0.52;;;0.40;;
27495;SDS011;14929;51.336;9.416;2022-10-16T09:23:52;0.60;;;0.60;;
27495;SDS011;14929;51.336;9.416;2022-10-16T09:26:22;0.60;;;0.60;;
27495;SDS011;14929;51.336;9.416;2022-10-16T09:28:51;0.60;;;0.60;;
27495;SDS011;14929;51.336;9.416;2022-10-16T09:31:21;0.60;;;0.60;;
27495;SDS011;14929;51.336;9.416;2022-10-16T09:33:50;0.80;;;0.80;;
27495;SDS011;14929;51.336;9.416;2022-10-16T09:36:21;0.60;;;0.60;;
27495;SDS011;14929;51.336;9.416;2022-10-16T09:39:00;0.60;;;0.60;;
27495;SDS011;14929;51.336;9.416;2022-10-16T09:41:30;0.60;;;0.60;;
27495;SDS011;14929;51.336;9.416;2022-10-16T09:44:01;0.52;;;0.50;;
27495;SDS011;14929;51.336;9.416;2022-10-16T09:46:31;1.50;;;0.68;;
27495;SDS011;14929;51.336;9.416;2022-10-16T09:49:01;0.63;;;0.63;;
27495;SDS011;14929;51.336;9.416;2022-10-16T09:51:30;0.55;;;0.55;;
27495;SDS011;14929;51.336;9.416;2022-10-16T09:54:00;0.52;;;0.52;;
27495;SDS011;14929;51.336;9.416;2022-10-16T09:56:38;0.70;;;0.70;;
27495;SDS011;14929;51.336;9.416;2022-10-16T09:59:10;0.68;;;0.68;;
27495;SDS011;14929;51.336;9.416;2022-10-16T10:01:40;0.70;;;0.70;;
27495;SDS011;14929;51.336;9.416;2022-10-16T10:04:09;0.60;;;0.60;;
27495;SDS011;14929;51.336;9.416;2022-10-16T10:06:40;0.60;;;0.60;;
27495;SDS011;14929;51.336;9.416;2022-10-16T10:09:17;0.50;;;0.50;;
27495;SDS011;14929;51.336;9.416;2022-10-16T10:11:48;1.20;;;0.77;;
27495;SDS011;14929;51.336;9.416;2022-10-16T10:14:20;0.40;;;0.40;;
27495;SDS011;14929;51.336;9.416;2022-10-16T10:17:06;0.50;;;0.50;;
27495;SDS011;14929;51.336;9.416;2022-10-16T10:19:39;0.52;;;0.52;;
27495;SDS011;14929;51.336;9.416;2022-10-16T10:22:25;0.60;;;0.60;;
27495;SDS011;14929;51.336;9.416;2022-10-16T10:24:59;0.50;;;0.50;;
27495;SDS011;14929;51.336;9.416;2022-10-16T10:28:10;1.73;;;0.60;;
27495;SDS011;14929;51.336;9.416;2022-10-16T10:30:56;0.60;;;0.60;;
27495;SDS011;14929;51.336;9.416;2022-10-16T10:33:34;1.85;;;0.68;;
27495;SDS011;14929;51.336;9.416;2022-10-16T10:36:12;0.50;;;0.50;;
27495;SDS011;14929;51.336;9.416;2022-10-16T10:38:50;0.57;;;0.57;;
27495;SDS011;14929;51.336;9.416;2022-10-16T10:41:35;1.23;;;0.80;;
27495;SDS011;14929;51.336;9.416;2022-10-16T10:44:39;0.77;;;0.63;;
27495;SDS011;14929;51.336;9.416;2022-10-16T10:47:37;0.55;;;0.55;;
27495;SDS011;14929;51.336;9.416;2022-10-16T10:50:17;0.50;;;0.50;;
27495;SDS011;14929;51.336;9.416;2022-10-16T10:52:53;0.60;;;0.60;;
27495;SDS011;14929;51.336;9.416;2022-10-16T10:55:29;0.50;;;0.50;;
27495;SDS011;14929;51.336;9.416;2022-10-16T10:58:14;0.77;;;0.77;;
27495;SDS011;14929;51.336;9.416;2022-10-16T11:00:56;0.50;;;0.50;;
27495;SDS011;14929;51.336;9.416;2022-10-16T11:03:46;0.60;;;0.60;;
27495;SDS011;14929;51.336;9.416;2022-10-16T11:06:31;0.55;;;0.55;;
27495;SDS011;14929;51.336;9.416;2022-10-16T11:09:02;0.75;;;0.75;;
27495;SDS011;14929;51.336;9.416;2022-10-16T11:11:36;0.32;;;0.32;;
27495;SDS011;14929;51.336;9.416;2022-10-16T11:14:10;0.52;;;0.52;;
27495;SDS011;14929;51.336;9.416;2022-10-16T11:16:43;0.60;;;0.60;;
27495;SDS011;14929;51.336;9.416;2022-10-16T11:19:19;0.70;;;0.70;;
27495;SDS011;14929;51.336;9.416;2022-10-16T11:21:59;0.60;;;0.60;;
27495;SDS011;14929;51.336;9.416;2022-10-16T11:24:33;2.72;;;0.70;;
27495;SDS011;14929;51.336;9.416;2022-10-16T11:27:07;0.60;;;0.60;;
27495;SDS011;14929;51.336;9.416;2022-10-16T11:29:40;0.50;;;0.50;;
27495;SDS011;14929;51.336;9.416;2022-10-16T11:32:15;0.95;;;0.60;;
27495;SDS011;14929;51.336;9.416;2022-10-16T11:34:50;0.65;;;0.65;;
27495;SDS011;14929;51.336;9.416;2022-10-16T11:37:21;0.65;;;0.65;;
27495;SDS011;14929;51.336;9.416;2022-10-16T11:39:52;0.60;;;0.60;;
27495;SDS011;14929;51.336;9.416;2022-10-16T11:42:23;0.50;;;0.50;;
27495;SDS011;14929;51.336;9.416;2022-10-16T11:44:57;0.60;;;0.60;;
27495;SDS011;14929;51.336;9.416;2022-10-16T11:47:34;0.50;;;0.50;;
27495;SDS011;14929;51.336;9.416;2022-10-16T11:50:05;0.40;;;0.40;;
27495;SDS011;14929;51.336;9.416;2022-10-16T11:52:42;0.60;;;0.60;;
27495;SDS011;14929;51.336;9.416;2022-10-16T11:55:14;0.60;;;0.60;;
27495;SDS011;14929;51.336;9.416;2022-10-16T11:57:45;0.60;;;0.60;;
27495;SDS011;14929;51.336;9.416;2022-10-16T12:00:19;0.60;;;0.60;;
27495;SDS011;14929;51.336;9.416;2022-10-16T12:02:52;0.52;;;0.52;;
27495;SDS011;14929;51.336;9.416;2022-10-16T12:05:28;0.50;;;0.50;;
27495;SDS011;14929;51.336;9.416;2022-10-16T12:08:08;0.50;;;0.50;;
27495;SDS011;14929;51.336;9.416;2022-10-16T12:10:37;0.55;;;0.55;;
27495;SDS011;14929;51.336;9.416;2022-10-16T12:16:06;0.60;;;0.60;;
27495;SDS011;14929;51.336;9.416;2022-10-16T12:18:50;0.60;;;0.60;;
27495;SDS011;14929;51.336;9.416;2022-10-16T12:21:37;0.75;;;0.55;;
27495;SDS011;14929;51.336;9.416;2022-10-16T12:24:06;0.68;;;0.65;;
27495;SDS011;14929;51.336;9.416;2022-10-16T12:26:45;0.70;;;0.70;;
27495;SDS011;14929;51.336;9.416;2022-10-16T12:29:14;0.70;;;0.70;;
27495;SDS011;14929;51.336;9.416;2022-10-16T12:31:52;0.60;;;0.60;;
27495;SDS011;14929;51.336;9.416;2022-10-16T12:34:21;0.50;;;0.50;;
27495;SDS011;14929;51.336;9.416;2022-10-16T12:36:52;0.65;;;0.50;;
27495;SDS011;14929;51.336;9.416;2022-10-16T12:39:22;0.45;;;0.45;;
27495;SDS011;14929;51.336;9.416;2022-10-16T12:42:00;0.52;;;0.52;;
27495;SDS011;14929;51.336;9.416;2022-10-16T12:44:31;0.43;;;0.43;;
27495;SDS011;14929;51.336;9.416;2022-10-16T12:47:00;0.60;;;0.60;;
27495;SDS011;14929;51.336;9.416;2022-10-16T12:49:31;0.60;;;0.60;;
27495;SDS011;14929;51.336;9.416;2022-10-16T12:52:03;0.50;;;0.50;;
27495;SDS011;14929;51.336;9.416;2022-10-16T12:54:34;1.65;;;0.50;;
27495;SDS011;14929;51.336;9.416;2022-10-16T12:57:19;0.60;;;0.60;;
27495;SDS011;14929;51.336;9.416;2022-10-16T13:00:03;0.60;;;0.60;;
27495;SDS011;14929;51.336;9.416;2022-10-16T13:02:47;0.90;;;0.68;;
27495;SDS011;14929;51.336;9.416;2022-10-16T13:05:26;0.80;;;0.80;;
27495;SDS011;14929;51.336;9.416;2022-10-16T13:08:05;0.55;;;0.55;;
27495;SDS011;14929;51.336;9.416;2022-10-16T13:10:51;0.60;;;0.60;;
27495;SDS011;14929;51.336;9.416;2022-10-16T13:13:35;0.50;;;0.50;;
27495;SDS011;14929;51.336;9.416;2022-10-16T13:16:18;1.55;;;0.40;;
27495;SDS011;14929;51.336;9.416;2022-10-16T13:18:53;0.47;;;0.47;;
27495;SDS011;14929;51.336;9.416;2022-10-16T13:21:31;0.50;;;0.50;;
27495;SDS011;14929;51.336;9.416;2022-10-16T13:24:09;0.52;;;0.52;;
27495;SDS011;14929;51.336;9.416;2022-10-16T13:26:48;0.52;;;0.52;;
27495;SDS011;14929;51.336;9.416;2022-10-16T13:29:19;0.63;;;0.40;;
27495;SDS011;14929;51.336;9.416;2022-10-16T13:31:47;0.50;;;0.50;;
27495;SDS011;14929;51.336;9.416;2022-10-16T13:34:16;0.60;;;0.60;;
27495;SDS011;14929;51.336;9.416;2022-10-16T13:36:46;0.50;;;0.50;;
27495;SDS011;14929;51.336;9.416;2022-10-16T13:39:19;0.70;;;0.70;;
27495;SDS011;14929;51.336;9.416;2022-10-16T13:42:00;1.85;;;0.68;;
27495;SDS011;14929;51.336;9.416;2022-10-16T13:44:31;1.75;;;0.82;;
27495;SDS011;14929;51.336;9.416;2022-10-16T13:47:05;0.40;;;0.40;;
27495;SDS011;14929;51.336;9.416;2022-10-16T13:49:37;0.40;;;0.40;;
27495;SDS011;14929;51.336;9.416;2022-10-16T13:52:04;0.68;;;0.68;;
27495;SDS011;14929;51.336;9.416;2022-10-16T13:54:32;0.98;;;0.85;;
27495;SDS011;14929;51.336;9.416;2022-10-16T13:57:05;0.70;;;0.65;;
27495;SDS011;14929;51.336;9.416;2022-10-16T13:59:33;0.40;;;0.40;;
27495;SDS011;14929;51.336;9.416;2022-10-16T14:02:05;1.38;;;0.60;;
27495;SDS011;14929;51.336;9.416;2022-10-16T14:04:44;0.45;;;0.45;;
27495;SDS011;14929;51.336;9.416;2022-10-16T14:07:13;0.40;;;0.40;;
27495;SDS011;14929;51.336;9.416;2022-10-16T14:09:47;0.52;;;0.52;;
27495;SDS011;14929;51.336;9.416;2022-10-16T14:12:16;0.77;;;0.50;;
27495;SDS011;14929;51.336;9.416;2022-10-16T14:14:44;3.70;;;0.47;;
27495;SDS011;14929;51.336;9.416;2022-10-16T14:17:13;0.40;;;0.40;;
27495;SDS011;14929;51.336;9.416;2022-10-16T14:19:44;0.32;;;0.32;;
27495;SDS011;14929;51.336;9.416;2022-10-16T14:22:22;0.77;;;0.60;;
27495;SDS011;14929;51.336;9.416;2022-10-16T14:24:56;0.47;;;0.43;;
27495;SDS011;14929;51.336;9.416;2022-10-16T14:27:28;0.50;;;0.50;;
27495;SDS011;14929;51.336;9.416;2022-10-16T14:30:13;1.45;;;0.60;;
27495;SDS011;14929;51.336;9.416;2022-10-16T14:32:52;0.65;;;0.50;;
27495;SDS011;14929;51.336;9.416;2022-10-16T14:35:23;0.40;;;0.40;;
27495;SDS011;14929;51.336;9.416;2022-10-16T14:37:56;0.80;;;0.40;;
27495;SDS011;14929;51.336;9.416;2022-10-16T14:40:26;0.50;;;0.50;;
27495;SDS011;14929;51.336;9.416;2022-10-16T14:42:57;0.40;;;0.40;;
27495;SDS011;14929;51.336;9.416;2022-10-16T14:45:27;0.40;;;0.40;;
27495;SDS011;14929;51.336;9.416;2022-10-16T14:47:57;0.40;;;0.40;;
27495;SDS011;14929;51.336;9.416;2022-10-16T14:50:26;0.43;;;0.43;;
27495;SDS011;14929;51.336;9.416;2022-10-16T14:52:53;1.25;;;0.40;;
27495;SDS011;14929;51.336;9.416;2022-10-16T14:55:21;0.40;;;0.40;;
27495;SDS011;14929;51.336;9.416;2022-10-16T14:57:48;1.55;;;0.50;;
27495;SDS011;14929;51.336;9.416;2022-10-16T15:00:19;1.38;;;0.50;;
27495;SDS011;14929;51.336;9.416;2022-10-16T15:02:49;0.60;;;0.60;;
27495;SDS011;14929;51.336;9.416;2022-10-16T15:05:17;0.55;;;0.55;;
27495;SDS011;14929;51.336;9.416;2022-10-16T15:07:47;0.55;;;0.55;;
27495;SDS011;14929;51.336;9.416;2022-10-16T15:10:15;0.50;;;0.50;;
27495;SDS011;14929;51.336;9.416;2022-10-16T15:12:44;0.68;;;0.68;;
27495;SDS011;14929;51.336;9.416;2022-10-16T15:15:26;0.60;;;0.60;;
27495;SDS011;14929;51.336;9.416;2022-10-16T15:18:00;0.38;;;0.35;;